sensor_id;sensor_type;location;lat;lon;timestamp;pressure;altitude;pressure_sealevel;temperature;humidity
37634;BME280;32048;49.902;22.508;2022-09-09T00:03:57;98396.41;;;16.22;100.00
37634;BME280;32048;49.902;22.508;2022-09-09T00:09:21;98394.72;;;16.10;100.00
37634;BME280;32048;49.902;22.508;2022-09-09T00:11:54;98410.22;;;16.05;100.00
37634;BME280;32048;49.902;22.508;2022-09-09T00:14:31;98415.19;;;15.98;100.00
37634;BME280;32048;49.902;22.508;2022-09-09T00:17:06;98414.72;;;15.93;100.00
37634;BME280;32048;49.902;22.508;2022-09-09T00:22:19;98440.16;;;15.86;100.00
37634;BME280;32048;49.902;22.508;2022-09-09T00:24:54;98432.53;;;15.81;100.00
37634;BME280;32048;49.902;22.508;2022-09-09T00:27:37;98432.63;;;15.79;100.00
37634;BME280;32048;49.902;22.508;2022-09-09T00:30:20;98431.06;;;15.77;100.00
37634;BME280;32048;49.902;22.508;2022-09-09T00:32:53;98419.69;;;15.75;100.00
37634;BME280;32048;49.902;22.508;2022-09-09T00:37:56;98409.63;;;15.67;100.00
37634;BME280;32048;49.902;22.508;2022-09-09T00:40:32;98410.81;;;15.63;100.00
37634;BME280;32048;49.902;22.508;2022-09-09T00:48:22;98404.75;;;15.50;100.00
37634;BME280;32048;49.902;22.508;2022-09-09T00:50:57;98390.09;;;15.44;100.00
37634;BME280;32048;49.902;22.508;2022-09-09T00:56:12;98407.03;;;15.32;100.00
37634;BME280;32048;49.902;22.508;2022-09-09T00:58:43;98413.44;;;15.29;100.00
37634;BME280;32048;49.902;22.508;2022-09-09T01:01:17;98410.06;;;15.27;100.00
37634;BME280;32048;49.902;22.508;2022-09-09T01:03:55;98409.44;;;15.24;100.00
37634;BME280;32048;49.902;22.508;2022-09-09T01:06:34;98406.03;;;15.22;100.00
37634;BME280;32048;49.902;22.508;2022-09-09T01:09:18;98409.66;;;15.21;100.00
37634;BME280;32048;49.902;22.508;2022-09-09T01:12:13;98406.28;;;15.18;100.00
37634;BME280;32048;49.902;22.508;2022-09-09T01:14:48;98404.81;;;15.14;100.00
37634;BME280;32048;49.902;22.508;2022-09-09T01:17:22;98401.41;;;15.12;100.00
37634;BME280;32048;49.902;22.508;2022-09-09T01:28:22;98411.28;;;14.99;100.00
37634;BME280;32048;49.902;22.508;2022-09-09T01:30:52;98412.28;;;14.98;100.00
37634;BME280;32048;49.902;22.508;2022-09-09T01:33:19;98420.25;;;14.98;100.00
37634;BME280;32048;49.902;22.508;2022-09-09T01:38:21;98395.94;;;14.91;100.00
37634;BME280;32048;49.902;22.508;2022-09-09T01:40:49;98403.03;;;14.91;100.00
37634;BME280;32048;49.902;22.508;2022-09-09T01:43:20;98405.00;;;14.89;100.00
37634;BME280;32048;49.902;22.508;2022-09-09T01:45:48;98403.97;;;14.79;100.00
37634;BME280;32048;49.902;22.508;2022-09-09T01:48:17;98412.06;;;14.77;100.00
37634;BME280;32048;49.902;22.508;2022-09-09T01:50:45;98405.59;;;14.68;100.00
37634;BME280;32048;49.902;22.508;2022-09-09T01:53:13;98412.63;;;14.69;100.00
37634;BME280;32048;49.902;22.508;2022-09-09T01:55:44;98411.91;;;14.67;100.00
37634;BME280;32048;49.902;22.508;2022-09-09T01:58:32;98419.25;;;14.64;100.00
37634;BME280;32048;49.902;22.508;2022-09-09T02:01:25;98414.25;;;14.59;100.00
37634;BME280;32048;49.902;22.508;2022-09-09T02:03:57;98410.03;;;14.57;100.00
37634;BME280;32048;49.902;22.508;2022-09-09T02:06:31;98413.72;;;14.54;100.00
37634;BME280;32048;49.902;22.508;2022-09-09T02:09:04;98415.66;;;14.52;100.00
37634;BME280;32048;49.902;22.508;2022-09-09T02:11:31;98412.25;;;14.50;100.00
37634;BME280;32048;49.902;22.508;2022-09-09T02:14:23;98405.47;;;14.46;100.00
37634;BME280;32048;49.902;22.508;2022-09-09T02:16:58;98404.72;;;14.44;100.00
37634;BME280;32048;49.902;22.508;2022-09-09T02:19:32;98403.88;;;14.43;100.00
37634;BME280;32048;49.902;22.508;2022-09-09T02:22:01;98407.63;;;14.41;100.00
37634;BME280;32048;49.902;22.508;2022-09-09T02:24:33;98407.72;;;14.39;100.00
37634;BME280;32048;49.902;22.508;2022-09-09T02:27:04;98407.72;;;14.39;100.00
37634;BME280;32048;49.902;22.508;2022-09-09T02:29:38;98409.66;;;14.37;100.00
37634;BME280;32048;49.902;22.508;2022-09-09T02:32:11;98410.38;;;14.39;100.00
37634;BME280;32048;49.902;22.508;2022-09-09T02:34:43;98410.50;;;14.38;100.00
37634;BME280;32048;49.902;22.508;2022-09-09T02:37:12;98411.47;;;14.37;100.00
37634;BME280;32048;49.902;22.508;2022-09-09T02:39:41;98407.22;;;14.34;100.00
37634;BME280;32048;49.902;22.508;2022-09-09T02:42:08;98406.38;;;14.33;100.00
37634;BME280;32048;49.902;22.508;2022-09-09T02:44:36;98405.66;;;14.31;100.00
37634;BME280;32048;49.902;22.508;2022-09-09T02:47:28;98406.81;;;14.27;100.00
37634;BME280;32048;49.902;22.508;2022-09-09T02:55:41;98417.00;;;14.33;100.00
37634;BME280;32048;49.902;22.508;2022-09-09T02:58:09;98414.34;;;14.33;100.00
37634;BME280;32048;49.902;22.508;2022-09-09T03:00:39;98412.44;;;14.35;100.00
37634;BME280;32048;49.902;22.508;2022-09-09T03:03:07;98416.66;;;14.38;100.00
37634;BME280;32048;49.902;22.508;2022-09-09T03:05:36;98424.53;;;14.40;100.00
37634;BME280;32048;49.902;22.508;2022-09-09T03:08:03;98419.44;;;14.37;100.00
37634;BME280;32048;49.902;22.508;2022-09-09T03:10:32;98423.91;;;14.36;100.00
37634;BME280;32048;49.902;22.508;2022-09-09T03:12:59;98411.47;;;14.37;100.00
37634;BME280;32048;49.902;22.508;2022-09-09T03:15:26;98414.97;;;14.37;100.00
37634;BME280;32048;49.902;22.508;2022-09-09T03:17:58;98419.31;;;14.38;100.00
37634;BME280;32048;49.902;22.508;2022-09-09T03:20:29;98421.75;;;14.41;100.00
37634;BME280;32048;49.902;22.508;2022-09-09T03:22:58;98413.69;;;14.43;100.00
37634;BME280;32048;49.902;22.508;2022-09-09T03:25:26;98418.25;;;14.41;100.00
37634;BME280;32048;49.902;22.508;2022-09-09T03:27:54;98409.34;;;14.42;100.00
37634;BME280;32048;49.902;22.508;2022-09-09T03:30:26;98415.50;;;14.42;100.00
37634;BME280;32048;49.902;22.508;2022-09-09T03:32:54;98410.78;;;14.46;100.00
37634;BME280;32048;49.902;22.508;2022-09-09T03:35:21;98408.13;;;14.46;100.00
37634;BME280;32048;49.902;22.508;2022-09-09T03:37:48;98413.44;;;14.46;100.00
37634;BME280;32048;49.902;22.508;2022-09-09T03:40:15;98413.44;;;14.46;100.00
37634;BME280;32048;49.902;22.508;2022-09-09T03:42:42;98411.66;;;14.46;100.00
37634;BME280;32048;49.902;22.508;2022-09-09T03:45:11;98418.53;;;14.49;100.00
37634;BME280;32048;49.902;22.508;2022-09-09T03:47:38;98411.53;;;14.48;100.00
37634;BME280;32048;49.902;22.508;2022-09-09T03:50:06;98414.81;;;14.51;100.00
37634;BME280;32048;49.902;22.508;2022-09-09T03:52:39;98420.88;;;14.53;100.00
37634;BME280;32048;49.902;22.508;2022-09-09T03:55:07;98414.50;;;14.56;100.00
37634;BME280;32048;49.902;22.508;2022-09-09T03:57:35;98415.25;;;14.58;100.00
37634;BME280;32048;49.902;22.508;2022-09-09T04:00:06;98419.59;;;14.59;100.00
37634;BME280;32048;49.902;22.508;2022-09-09T04:02:33;98412.47;;;14.60;100.00
37634;BME280;32048;49.902;22.508;2022-09-09T04:05:00;98413.19;;;14.62;100.00
37634;BME280;32048;49.902;22.508;2022-09-09T04:07:27;98415.00;;;14.61;100.00
37634;BME280;32048;49.902;22.508;2022-09-09T04:09:55;98408.59;;;14.64;100.00
37634;BME280;32048;49.902;22.508;2022-09-09T04:12:21;98414.66;;;14.66;100.00
37634;BME280;32048;49.902;22.508;2022-09-09T04:14:49;98417.31;;;14.66;100.00
37634;BME280;32048;49.902;22.508;2022-09-09T04:17:16;98422.53;;;14.67;100.00
37634;BME280;32048;49.902;22.508;2022-09-09T04:19:43;98419.97;;;14.66;100.00
37634;BME280;32048;49.902;22.508;2022-09-09T04:22:10;98426.28;;;14.65;100.00
37634;BME280;32048;49.902;22.508;2022-09-09T04:24:37;98422.97;;;14.61;100.00
37634;BME280;32048;49.902;22.508;2022-09-09T04:27:04;98429.13;;;14.62;100.00
37634;BME280;32048;49.902;22.508;2022-09-09T04:29:31;98424.91;;;14.59;100.00
37634;BME280;32048;49.902;22.508;2022-09-09T04:31:58;98425.78;;;14.60;100.00
37634;BME280;32048;49.902;22.508;2022-09-09T04:34:25;98420.56;;;14.58;100.00
37634;BME280;32048;49.902;22.508;2022-09-09T04:36:52;98419.72;;;14.58;100.00
37634;BME280;32048;49.902;22.508;2022-09-09T04:39:19;98421.63;;;14.55;100.00
37634;BME280;32048;49.902;22.508;2022-09-09T04:41:46;98423.22;;;14.58;100.00
37634;BME280;32048;49.902;22.508;2022-09-09T04:44:14;98422.13;;;14.61;100.00
37634;BME280;32048;49.902;22.508;2022-09-09T04:46:40;98424.56;;;14.64;100.00
37634;BME280;32048;49.902;22.508;2022-09-09T04:49:08;98424.22;;;14.68;100.00
37634;BME280;32048;49.902;22.508;2022-09-09T04:51:40;98420.59;;;14.69;100.00
37634;BME280;32048;49.902;22.508;2022-09-09T04:54:08;98425.69;;;14.72;100.00
37634;BME280;32048;49.902;22.508;2022-09-09T04:56:35;98423.66;;;14.76;100.00
37634;BME280;32048;49.902;22.508;2022-09-09T04:59:03;98431.41;;;14.79;100.00
37634;BME280;32048;49.902;22.508;2022-09-09T05:01:29;98430.22;;;14.83;100.00
37634;BME280;32048;49.902;22.508;2022-09-09T05:03:56;98428.28;;;14.85;100.00
37634;BME280;32048;49.902;22.508;2022-09-09T05:06:24;98427.44;;;14.85;100.00
37634;BME280;32048;49.902;22.508;2022-09-09T05:08:51;98436.25;;;14.85;100.00
37634;BME280;32048;49.902;22.508;2022-09-09T05:11:29;98431.19;;;14.82;100.00
37634;BME280;32048;49.902;22.508;2022-09-09T05:13:56;98441.56;;;14.85;100.00
37634;BME280;32048;49.902;22.508;2022-09-09T05:16:23;98434.44;;;14.86;100.00
37634;BME280;32048;49.902;22.508;2022-09-09T05:18:50;98438.91;;;14.85;100.00
37634;BME280;32048;49.902;22.508;2022-09-09T05:21:19;98442.22;;;14.89;100.00
37634;BME280;32048;49.902;22.508;2022-09-09T05:23:47;98442.91;;;14.91;100.00
37634;BME280;32048;49.902;22.508;2022-09-09T05:26:19;98443.78;;;14.91;100.00
37634;BME280;32048;49.902;22.508;2022-09-09T05:28:46;98434.84;;;14.92;100.00
37634;BME280;32048;49.902;22.508;2022-09-09T05:31:15;98436.75;;;14.90;100.00
37634;BME280;32048;49.902;22.508;2022-09-09T05:33:44;98434.09;;;14.90;100.00
37634;BME280;32048;49.902;22.508;2022-09-09T05:36:14;98434.09;;;14.90;100.00
37634;BME280;32048;49.902;22.508;2022-09-09T05:38:43;98433.25;;;14.90;100.00
37634;BME280;32048;49.902;22.508;2022-09-09T05:41:12;98437.50;;;14.92;100.00
37634;BME280;32048;49.902;22.508;2022-09-09T05:43:39;98433.75;;;14.95;100.00
37634;BME280;32048;49.902;22.508;2022-09-09T05:46:07;98436.19;;;14.98;100.00
37634;BME280;32048;49.902;22.508;2022-09-09T05:48:42;98437.88;;;14.99;100.00
37634;BME280;32048;49.902;22.508;2022-09-09T05:51:12;98441.28;;;15.01;100.00
37634;BME280;32048;49.902;22.508;2022-09-09T05:53:39;98444.56;;;15.05;100.00
37634;BME280;32048;49.902;22.508;2022-09-09T05:56:08;98442.16;;;15.13;100.00
37634;BME280;32048;49.902;22.508;2022-09-09T05:58:38;98444.09;;;15.22;100.00
37634;BME280;32048;49.902;22.508;2022-09-09T06:01:06;98448.47;;;15.23;100.00
37634;BME280;32048;49.902;22.508;2022-09-09T06:03:38;98453.56;;;15.26;100.00
37634;BME280;32048;49.902;22.508;2022-09-09T06:06:07;98453.34;;;15.29;100.00
37634;BME280;32048;49.902;22.508;2022-09-09T06:08:36;98457.69;;;15.30;100.00
37634;BME280;32048;49.902;22.508;2022-09-09T06:11:04;98451.97;;;15.24;100.00
37634;BME280;32048;49.902;22.508;2022-09-09T06:13:32;98451.63;;;15.28;100.00
37634;BME280;32048;49.902;22.508;2022-09-09T06:15:59;98456.59;;;15.33;100.00
37634;BME280;32048;49.902;22.508;2022-09-09T06:18:27;98457.81;;;15.40;100.00
37634;BME280;32048;49.902;22.508;2022-09-09T06:20:55;98459.91;;;15.48;100.00
37634;BME280;32048;49.902;22.508;2022-09-09T06:23:22;98454.47;;;15.49;100.00
37634;BME280;32048;49.902;22.508;2022-09-09T06:26:05;98449.03;;;15.51;100.00
37634;BME280;32048;49.902;22.508;2022-09-09T06:28:33;98452.19;;;15.56;100.00
37634;BME280;32048;49.902;22.508;2022-09-09T06:31:03;98458.72;;;15.63;100.00
37634;BME280;32048;49.902;22.508;2022-09-09T06:33:32;98459.94;;;15.70;100.00
37634;BME280;32048;49.902;22.508;2022-09-09T06:36:02;98463.00;;;15.77;100.00
37634;BME280;32048;49.902;22.508;2022-09-09T06:38:30;98467.88;;;15.83;100.00
37634;BME280;32048;49.902;22.508;2022-09-09T06:40:59;98473.56;;;15.90;100.00
37634;BME280;32048;49.902;22.508;2022-09-09T06:43:26;98468.81;;;15.93;100.00
37634;BME280;32048;49.902;22.508;2022-09-09T06:48:32;98478.38;;;15.96;100.00
37634;BME280;32048;49.902;22.508;2022-09-09T06:53:39;98480.94;;;15.97;100.00
37634;BME280;32048;49.902;22.508;2022-09-09T06:58:44;98477.66;;;16.05;100.00
37634;BME280;32048;49.902;22.508;2022-09-09T07:01:13;98484.31;;;16.11;100.00
37634;BME280;32048;49.902;22.508;2022-09-09T07:03:41;98484.94;;;16.14;100.00
37634;BME280;32048;49.902;22.508;2022-09-09T07:06:14;98495.22;;;16.19;100.00
37634;BME280;32048;49.902;22.508;2022-09-09T07:08:43;98500.31;;;16.22;100.00
37634;BME280;32048;49.902;22.508;2022-09-09T07:11:24;98508.31;;;16.22;100.00
37634;BME280;32048;49.902;22.508;2022-09-09T07:13:52;98512.78;;;16.21;100.00
37634;BME280;32048;49.902;22.508;2022-09-09T07:16:20;98518.13;;;16.21;100.00
37634;BME280;32048;49.902;22.508;2022-09-09T07:18:48;98517.28;;;16.21;100.00
37634;BME280;32048;49.902;22.508;2022-09-09T07:21:18;98517.88;;;16.25;100.00
37634;BME280;32048;49.902;22.508;2022-09-09T07:23:45;98516.75;;;16.27;100.00
37634;BME280;32048;49.902;22.508;2022-09-09T07:26:15;98520.88;;;16.31;100.00
37634;BME280;32048;49.902;22.508;2022-09-09T07:28:43;98524.16;;;16.35;100.00
37634;BME280;32048;49.902;22.508;2022-09-09T07:31:19;98529.97;;;16.40;100.00
37634;BME280;32048;49.902;22.508;2022-09-09T07:33:47;98530.22;;;16.48;100.00
37634;BME280;32048;49.902;22.508;2022-09-09T07:36:19;98533.47;;;16.52;100.00
37634;BME280;32048;49.902;22.508;2022-09-09T07:38:54;98535.91;;;16.55;100.00
37634;BME280;32048;49.902;22.508;2022-09-09T07:41:24;98528.97;;;16.63;100.00
37634;BME280;32048;49.902;22.508;2022-09-09T07:43:52;98537.81;;;16.75;100.00
37634;BME280;32048;49.902;22.508;2022-09-09T07:46:22;98535.16;;;16.87;100.00
37634;BME280;32048;49.902;22.508;2022-09-09T07:48:52;98543.84;;;17.00;100.00
37634;BME280;32048;49.902;22.508;2022-09-09T07:51:21;98551.81;;;17.11;100.00
37634;BME280;32048;49.902;22.508;2022-09-09T07:53:53;98551.19;;;17.19;100.00
37634;BME280;32048;49.902;22.508;2022-09-09T07:56:20;98548.28;;;17.22;100.00
37634;BME280;32048;49.902;22.508;2022-09-09T07:58:51;98560.97;;;17.30;100.00
37634;BME280;32048;49.902;22.508;2022-09-09T08:01:25;98556.94;;;17.35;100.00
37634;BME280;32048;49.902;22.508;2022-09-09T08:03:59;98555.47;;;17.42;100.00
37634;BME280;32048;49.902;22.508;2022-09-09T08:06:29;98554.31;;;17.56;100.00
37634;BME280;32048;49.902;22.508;2022-09-09T08:08:57;98549.34;;;17.73;100.00
37634;BME280;32048;49.902;22.508;2022-09-09T08:11:25;98552.75;;;17.96;100.00
37634;BME280;32048;49.902;22.508;2022-09-09T08:13:53;98553.47;;;18.19;100.00
37634;BME280;32048;49.902;22.508;2022-09-09T08:16:29;98559.47;;;18.42;100.00
37634;BME280;32048;49.902;22.508;2022-09-09T08:18:57;98568.44;;;18.62;100.00
37634;BME280;32048;49.902;22.508;2022-09-09T08:21:26;98567.53;;;18.82;100.00
37634;BME280;32048;49.902;22.508;2022-09-09T08:23:56;98566.34;;;19.06;100.00
37634;BME280;32048;49.902;22.508;2022-09-09T08:26:25;98573.13;;;19.20;100.00
37634;BME280;32048;49.902;22.508;2022-09-09T08:28:53;98574.38;;;19.55;100.00
37634;BME280;32048;49.902;22.508;2022-09-09T08:31:26;98565.53;;;19.83;100.00
37634;BME280;32048;49.902;22.508;2022-09-09T08:33:55;98569.16;;;20.11;100.00
37634;BME280;32048;49.902;22.508;2022-09-09T08:36:26;98567.66;;;20.37;100.00
37634;BME280;32048;49.902;22.508;2022-09-09T08:38:56;98567.88;;;20.53;100.00
37634;BME280;32048;49.902;22.508;2022-09-09T08:43:51;98576.78;;;20.63;100.00
37634;BME280;32048;49.902;22.508;2022-09-09T08:46:36;98570.50;;;20.72;100.00
37634;BME280;32048;49.902;22.508;2022-09-09T08:49:17;98573.63;;;20.68;100.00
37634;BME280;32048;49.902;22.508;2022-09-09T08:51:46;98570.97;;;20.68;100.00
37634;BME280;32048;49.902;22.508;2022-09-09T08:54:15;98574.47;;;20.68;100.00
37634;BME280;32048;49.902;22.508;2022-09-09T08:57:10;98566.94;;;20.82;100.00
37634;BME280;32048;49.902;22.508;2022-09-09T08:59:39;98578.06;;;21.14;100.00
37634;BME280;32048;49.902;22.508;2022-09-09T09:02:38;98579.09;;;21.49;100.00
37634;BME280;32048;49.902;22.508;2022-09-09T09:11:00;98570.13;;;22.55;93.75
37634;BME280;32048;49.902;22.508;2022-09-09T09:16:34;98576.66;;;22.87;89.62
37634;BME280;32048;49.902;22.508;2022-09-09T09:19:08;98581.06;;;22.96;89.84
37634;BME280;32048;49.902;22.508;2022-09-09T09:21:43;98575.31;;;22.91;87.12
37634;BME280;32048;49.902;22.508;2022-09-09T09:26:52;98572.66;;;22.56;90.25
37634;BME280;32048;49.902;22.508;2022-09-09T09:29:21;98570.88;;;22.39;89.36
37634;BME280;32048;49.902;22.508;2022-09-09T09:31:55;98574.69;;;22.28;91.82
37634;BME280;32048;49.902;22.508;2022-09-09T09:34:23;98581.38;;;22.24;93.13
37634;BME280;32048;49.902;22.508;2022-09-09T09:36:56;98581.56;;;22.23;93.24
37634;BME280;32048;49.902;22.508;2022-09-09T09:39:28;98578.69;;;22.24;92.27
37634;BME280;32048;49.902;22.508;2022-09-09T09:42:17;98584.28;;;22.13;91.35
37634;BME280;32048;49.902;22.508;2022-09-09T09:44:49;98585.94;;;22.06;91.56
37634;BME280;32048;49.902;22.508;2022-09-09T09:47:21;98584.56;;;22.01;91.23
37634;BME280;32048;49.902;22.508;2022-09-09T09:49:59;98590.78;;;22.02;93.01
37634;BME280;32048;49.902;22.508;2022-09-09T09:52:28;98589.84;;;22.11;92.05
37634;BME280;32048;49.902;22.508;2022-09-09T09:54:57;98588.69;;;22.14;91.58
37634;BME280;32048;49.902;22.508;2022-09-09T09:57:33;98586.84;;;22.14;92.22
37634;BME280;32048;49.902;22.508;2022-09-09T10:00:13;98594.44;;;22.19;92.23
37634;BME280;32048;49.902;22.508;2022-09-09T10:02:42;98600.75;;;22.28;93.01
37634;BME280;32048;49.902;22.508;2022-09-09T10:05:16;98595.09;;;22.39;92.76
37634;BME280;32048;49.902;22.508;2022-09-09T10:07:44;98585.16;;;22.66;91.28
37634;BME280;32048;49.902;22.508;2022-09-09T10:16:03;98606.72;;;23.92;81.34
37634;BME280;32048;49.902;22.508;2022-09-09T10:24:30;98604.16;;;23.74;83.14
37634;BME280;32048;49.902;22.508;2022-09-09T10:27:21;98599.09;;;24.36;85.40
37634;BME280;32048;49.902;22.508;2022-09-09T10:30:07;98607.66;;;25.51;79.18
37634;BME280;32048;49.902;22.508;2022-09-09T10:32:46;98604.53;;;26.77;71.05
37634;BME280;32048;49.902;22.508;2022-09-09T10:35:25;98604.38;;;28.09;66.32
37634;BME280;32048;49.902;22.508;2022-09-09T10:43:13;98610.47;;;29.02;52.47
37634;BME280;32048;49.902;22.508;2022-09-09T10:56:55;98620.59;;;25.87;63.46
37634;BME280;32048;49.902;22.508;2022-09-09T10:59:29;98621.34;;;25.50;65.31
37634;BME280;32048;49.902;22.508;2022-09-09T11:02:12;98617.78;;;25.10;66.66
37634;BME280;32048;49.902;22.508;2022-09-09T11:04:42;98624.81;;;24.88;68.15
37634;BME280;32048;49.902;22.508;2022-09-09T11:07:21;98614.91;;;24.64;70.13
37634;BME280;32048;49.902;22.508;2022-09-09T11:09:56;98608.72;;;24.39;69.15
37634;BME280;32048;49.902;22.508;2022-09-09T11:12:27;98616.50;;;24.17;70.33
37634;BME280;32048;49.902;22.508;2022-09-09T11:15:06;98615.81;;;23.99;71.62
37634;BME280;32048;49.902;22.508;2022-09-09T11:17:42;98612.81;;;23.94;73.64
37634;BME280;32048;49.902;22.508;2022-09-09T11:20:12;98617.84;;;24.05;74.07
37634;BME280;32048;49.902;22.508;2022-09-09T11:23:29;98621.19;;;24.56;70.52
37634;BME280;32048;49.902;22.508;2022-09-09T11:25:40;98622.09;;;24.96;66.82
37634;BME280;32048;49.902;22.508;2022-09-09T11:33:48;98626.16;;;25.63;65.02
37634;BME280;32048;49.902;22.508;2022-09-09T11:41:52;98632.78;;;25.83;62.67
37634;BME280;32048;49.902;22.508;2022-09-09T11:44:28;98639.28;;;25.97;62.37
37634;BME280;32048;49.902;22.508;2022-09-09T11:46:55;98643.13;;;26.03;60.59
37634;BME280;32048;49.902;22.508;2022-09-09T11:49:43;98640.38;;;25.88;58.63
37634;BME280;32048;49.902;22.508;2022-09-09T11:54:49;98647.59;;;25.33;60.26
37634;BME280;32048;49.902;22.508;2022-09-09T11:57:36;98646.53;;;25.03;63.66
37634;BME280;32048;49.902;22.508;2022-09-09T12:00:05;98644.38;;;24.90;64.42
37634;BME280;32048;49.902;22.508;2022-09-09T12:02:33;98642.25;;;24.69;65.79
37634;BME280;32048;49.902;22.508;2022-09-09T12:05:07;98633.00;;;24.39;67.37
37634;BME280;32048;49.902;22.508;2022-09-09T12:07:38;98647.34;;;24.15;68.16
37634;BME280;32048;49.902;22.508;2022-09-09T12:12:36;98640.41;;;23.71;71.28
37634;BME280;32048;49.902;22.508;2022-09-09T12:17:49;98642.66;;;23.33;73.04
37634;BME280;32048;49.902;22.508;2022-09-09T12:20:37;98645.16;;;23.18;73.82
37634;BME280;32048;49.902;22.508;2022-09-09T12:23:19;98642.25;;;23.03;73.80
37634;BME280;32048;49.902;22.508;2022-09-09T12:31:15;98638.03;;;22.75;76.22
37634;BME280;32048;49.902;22.508;2022-09-09T12:33:45;98637.13;;;22.66;75.82
37634;BME280;32048;49.902;22.508;2022-09-09T12:36:18;98643.00;;;22.61;76.24
37634;BME280;32048;49.902;22.508;2022-09-09T12:38:46;98638.78;;;22.59;76.36
37634;BME280;32048;49.902;22.508;2022-09-09T12:41:39;98630.28;;;22.46;76.27
37634;BME280;32048;49.902;22.508;2022-09-09T12:44:09;98625.25;;;22.42;77.16
37634;BME280;32048;49.902;22.508;2022-09-09T12:46:40;98616.25;;;22.34;77.84
37634;BME280;32048;49.902;22.508;2022-09-09T12:49:44;98614.34;;;22.26;78.87
37634;BME280;32048;49.902;22.508;2022-09-09T12:52:20;98617.94;;;22.35;78.33
37634;BME280;32048;49.902;22.508;2022-09-09T12:54:49;98611.94;;;22.41;77.85
37634;BME280;32048;49.902;22.508;2022-09-09T12:57:18;98617.25;;;22.33;78.55
37634;BME280;32048;49.902;22.508;2022-09-09T12:59:45;98615.56;;;22.58;79.18
37634;BME280;32048;49.902;22.508;2022-09-09T13:04:47;98603.78;;;23.36;73.44
37634;BME280;32048;49.902;22.508;2022-09-09T13:07:15;98602.44;;;23.56;74.12
37634;BME280;32048;49.902;22.508;2022-09-09T13:09:44;98603.47;;;23.72;72.52
37634;BME280;32048;49.902;22.508;2022-09-09T13:12:20;98607.69;;;23.74;70.61
37634;BME280;32048;49.902;22.508;2022-09-09T13:14:50;98603.66;;;23.62;72.36
37634;BME280;32048;49.902;22.508;2022-09-09T13:17:22;98596.22;;;23.56;73.55
37634;BME280;32048;49.902;22.508;2022-09-09T13:19:51;98601.28;;;23.67;72.80
37634;BME280;32048;49.902;22.508;2022-09-09T13:22:40;98601.66;;;23.72;71.88
37634;BME280;32048;49.902;22.508;2022-09-09T13:27:40;98600.84;;;23.88;69.83
37634;BME280;32048;49.902;22.508;2022-09-09T13:30:20;98607.91;;;23.81;70.16
37634;BME280;32048;49.902;22.508;2022-09-09T13:35:57;98611.75;;;23.62;72.23
37634;BME280;32048;49.902;22.508;2022-09-09T13:38:25;98611.09;;;23.68;72.02
37634;BME280;32048;49.902;22.508;2022-09-09T13:43:22;98617.91;;;23.38;70.64
37634;BME280;32048;49.902;22.508;2022-09-09T13:45:58;98615.31;;;23.03;72.57
37634;BME280;32048;49.902;22.508;2022-09-09T13:48:26;98620.88;;;22.76;74.24
37634;BME280;32048;49.902;22.508;2022-09-09T13:51:01;98628.50;;;22.54;76.08
37634;BME280;32048;49.902;22.508;2022-09-09T13:53:30;98628.88;;;22.33;76.71
37634;BME280;32048;49.902;22.508;2022-09-09T13:55:57;98622.16;;;22.19;79.26
37634;BME280;32048;49.902;22.508;2022-09-09T13:58:25;98636.63;;;22.18;79.98
37634;BME280;32048;49.902;22.508;2022-09-09T14:00:53;98616.56;;;22.31;79.57
37634;BME280;32048;49.902;22.508;2022-09-09T14:03:20;98618.97;;;22.42;78.90
37634;BME280;32048;49.902;22.508;2022-09-09T14:05:48;98611.94;;;22.41;78.01
37634;BME280;32048;49.902;22.508;2022-09-09T14:08:24;98616.78;;;22.19;77.89
37634;BME280;32048;49.902;22.508;2022-09-09T14:10:52;98613.16;;;22.03;79.44
37634;BME280;32048;49.902;22.508;2022-09-09T14:13:22;98619.47;;;21.93;80.71
37634;BME280;32048;49.902;22.508;2022-09-09T14:15:49;98619.25;;;21.87;82.17
37634;BME280;32048;49.902;22.508;2022-09-09T14:18:16;98615.94;;;21.93;81.95
37634;BME280;32048;49.902;22.508;2022-09-09T14:20:43;98604.84;;;21.96;81.10
37634;BME280;32048;49.902;22.508;2022-09-09T14:23:11;98613.75;;;21.96;81.36
37634;BME280;32048;49.902;22.508;2022-09-09T14:25:40;98601.69;;;22.00;81.05
37634;BME280;32048;49.902;22.508;2022-09-09T14:28:10;98598.41;;;22.07;80.00
37634;BME280;32048;49.902;22.508;2022-09-09T14:30:39;98595.84;;;22.05;80.07
37634;BME280;32048;49.902;22.508;2022-09-09T14:33:08;98597.25;;;21.91;80.66
37634;BME280;32048;49.902;22.508;2022-09-09T14:35:36;98605.84;;;21.77;80.76
37634;BME280;32048;49.902;22.508;2022-09-09T14:38:04;98597.81;;;21.59;82.46
37634;BME280;32048;49.902;22.508;2022-09-09T14:40:31;98600.66;;;21.57;84.11
37634;BME280;32048;49.902;22.508;2022-09-09T14:42:58;98607.09;;;21.65;82.95
37634;BME280;32048;49.902;22.508;2022-09-09T14:45:26;98602.91;;;21.62;82.65
37634;BME280;32048;49.902;22.508;2022-09-09T14:47:53;98607.84;;;21.39;82.72
37634;BME280;32048;49.902;22.508;2022-09-09T14:50:20;98602.25;;;21.05;85.45
37634;BME280;32048;49.902;22.508;2022-09-09T14:52:47;98598.28;;;20.81;87.89
37634;BME280;32048;49.902;22.508;2022-09-09T14:55:14;98602.84;;;20.71;89.55
37634;BME280;32048;49.902;22.508;2022-09-09T14:57:42;98605.13;;;20.66;90.64
37634;BME280;32048;49.902;22.508;2022-09-09T15:00:10;98599.78;;;20.66;89.47
37634;BME280;32048;49.902;22.508;2022-09-09T15:02:38;98600.06;;;20.53;90.56
37634;BME280;32048;49.902;22.508;2022-09-09T15:05:05;98600.38;;;20.40;90.54